createdAt,value
2022-12-17T00:01:42.678Z,22.08
2022-12-17T00:07:02.996Z,23.85
2022-12-17T00:12:23.161Z,20.75
2022-12-17T00:17:43.530Z,21.13
2022-12-17T00:23:03.765Z,21.23
2022-12-17T00:28:28.759Z,19.77
2022-12-17T00:33:49.038Z,18.63
2022-12-17T00:39:09.445Z,21.95
2022-12-17T00:44:30.146Z,22.20
2022-12-17T00:49:50.335Z,20.85
2022-12-17T00:55:10.516Z,19.63
2022-12-17T01:00:31.340Z,20.38
2022-12-17T01:05:52.688Z,21.48
2022-12-17T01:11:19.185Z,22.23
2022-12-17T01:16:39.566Z,19.20
2022-12-17T01:22:01.668Z,20.55
2022-12-17T01:27:21.940Z,21.58
2022-12-17T01:32:44.127Z,19.55
2022-12-17T01:38:04.438Z,22.10
2022-12-17T01:43:30.424Z,22.40
2022-12-17T01:49:03.302Z,22.65
2022-12-17T01:54:24.714Z,19.10
2022-12-17T01:59:57.684Z,21.73
2022-12-17T02:05:17.944Z,20.85
2022-12-17T02:10:48.511Z,21.77
2022-12-17T02:16:44.670Z,21.25
2022-12-17T02:22:13.469Z,22.45
2022-12-17T02:27:34.841Z,22.08
2022-12-17T02:33:00.342Z,19.83
2022-12-17T02:38:43.148Z,18.77
2022-12-17T02:44:04.529Z,20.73
2022-12-17T02:49:26.181Z,21.15
2022-12-17T02:54:51.813Z,21.60
2022-12-17T03:00:13.213Z,17.92
2022-12-17T03:05:45.120Z,19.50
2022-12-17T03:11:06.190Z,20.55
2022-12-17T03:16:32.783Z,20.40
2022-12-17T03:21:57.415Z,20.50
2022-12-17T03:27:17.575Z,20.45
2022-12-17T03:32:37.811Z,20.67
2022-12-17T03:37:58.052Z,22.73
2022-12-17T03:43:25.780Z,19.58
2022-12-17T03:48:46.024Z,19.70
2022-12-17T03:54:06.289Z,20.25
2022-12-17T03:59:26.515Z,19.95
2022-12-17T04:04:46.887Z,20.23
2022-12-17T04:10:07.100Z,18.52
2022-12-17T04:15:27.783Z,20.05
2022-12-17T04:20:48.026Z,20.58
2022-12-17T04:26:08.343Z,18.63
2022-12-17T04:31:28.716Z,20.55
2022-12-17T04:36:48.955Z,20.13
2022-12-17T04:42:09.184Z,19.40
2022-12-17T04:47:29.410Z,17.60
2022-12-17T04:52:49.690Z,17.98
2022-12-17T04:58:09.922Z,17.13
2022-12-17T05:03:35.195Z,17.95
2022-12-17T05:08:55.970Z,27.10
2022-12-17T05:14:16.200Z,19.25
2022-12-17T05:19:36.631Z,17.17
2022-12-17T05:24:57.345Z,17.00
2022-12-17T05:30:17.668Z,17.98
2022-12-17T05:35:37.933Z,17.92
2022-12-17T05:40:58.153Z,18.33
2022-12-17T05:46:18.886Z,19.27
2022-12-17T05:51:40.275Z,17.98
2022-12-17T05:57:00.478Z,17.58
2022-12-17T06:02:20.687Z,16.25
2022-12-17T06:07:41.040Z,19.33
2022-12-17T06:13:01.459Z,18.52
2022-12-17T06:18:21.758Z,17.30
2022-12-17T06:23:41.982Z,18.52
2022-12-17T06:29:02.943Z,17.98
2022-12-17T06:34:23.064Z,17.42
2022-12-17T06:39:43.222Z,18.67
2022-12-17T06:45:03.523Z,18.63
2022-12-17T06:50:24.734Z,20.42
2022-12-17T06:55:45.093Z,20.77
2022-12-17T07:01:05.827Z,20.30
2022-12-17T07:06:27.243Z,18.48
2022-12-17T07:11:47.776Z,20.38
2022-12-17T07:17:08.083Z,21.33
2022-12-17T07:22:28.524Z,19.50
2022-12-17T07:27:48.856Z,21.23
2022-12-17T07:33:26.089Z,20.42
2022-12-17T07:38:49.426Z,20.00
2022-12-17T07:44:09.734Z,21.08
2022-12-17T07:49:30.698Z,23.13
2022-12-17T07:54:51.107Z,20.73
2022-12-17T08:00:11.334Z,20.42
2022-12-17T08:05:31.444Z,20.75
2022-12-17T08:10:51.499Z,19.30
2022-12-17T08:16:13.057Z,20.83
2022-12-17T08:21:33.763Z,20.63
2022-12-17T08:26:54.082Z,18.23
2022-12-17T08:32:14.335Z,22.05
2022-12-17T08:37:34.715Z,18.83
2022-12-17T08:42:55.268Z,24.40
2022-12-17T08:48:26.367Z,24.40
2022-12-17T08:53:46.453Z,20.13
2022-12-17T08:59:07.053Z,19.10
2022-12-17T09:04:27.422Z,18.95
2022-12-17T09:09:47.695Z,19.08
2022-12-17T09:15:07.926Z,18.83
2022-12-17T09:20:29.561Z,19.08
2022-12-17T09:25:53.678Z,18.25
2022-12-17T09:31:20.726Z,17.48
2022-12-17T09:36:41.168Z,18.45
2022-12-17T09:42:27.375Z,16.17
2022-12-17T09:48:15.329Z,15.55
2022-12-17T09:54:08.690Z,13.93
2022-12-17T09:59:39.029Z,15.60
2022-12-17T10:05:02.968Z,15.30
2022-12-17T10:10:38.447Z,14.63
2022-12-17T10:16:01.688Z,13.27
2022-12-17T10:21:25.406Z,13.55
2022-12-17T10:26:49.719Z,16.42
2022-12-17T10:32:10.683Z,14.02
2022-12-17T10:37:39.127Z,17.45
2022-12-17T10:42:59.405Z,13.77
2022-12-17T10:48:20.067Z,15.30
2022-12-17T10:53:43.892Z,15.50
2022-12-17T10:59:12.825Z,15.27
2022-12-17T11:04:42.361Z,13.68
2022-12-17T11:10:11.707Z,15.20
2022-12-17T11:15:51.341Z,14.27
2022-12-17T11:21:38.915Z,14.35
2022-12-17T11:27:02.870Z,14.85
2022-12-17T11:32:32.575Z,15.68
2022-12-17T11:38:16.173Z,14.85
2022-12-17T11:44:15.559Z,15.88
2022-12-17T11:50:04.443Z,15.30
2022-12-17T12:00:55.327Z,14.30
2022-12-17T12:06:21.587Z,16.30
2022-12-17T12:12:04.502Z,16.40
2022-12-17T12:17:37.017Z,14.35
2022-12-17T12:23:11.940Z,16.52
2022-12-17T12:28:41.386Z,16.42
2022-12-17T12:34:28.088Z,15.75
2022-12-17T12:40:00.083Z,13.85
2022-12-17T12:45:26.972Z,15.63
2022-12-17T12:51:19.408Z,13.68
2022-12-17T12:56:54.545Z,16.02
2022-12-17T13:02:14.751Z,15.02
2022-12-17T13:07:28.206Z,14.65
2022-12-17T13:12:44.778Z,14.68
2022-12-17T13:18:16.339Z,13.57
2022-12-17T13:23:39.186Z,14.85
2022-12-17T13:28:42.943Z,13.95
2022-12-17T13:33:54.840Z,13.25
2022-12-17T13:39:12.273Z,14.25
2022-12-17T13:44:29.590Z,14.32
2022-12-17T13:49:32.138Z,14.70
2022-12-17T13:54:34.757Z,13.32
2022-12-17T13:59:38.079Z,13.32
2022-12-17T14:04:40.995Z,14.75
2022-12-17T14:09:44.108Z,15.18
2022-12-17T14:14:56.213Z,17.90
2022-12-17T14:20:22.855Z,15.43
2022-12-17T14:25:34.231Z,13.48
2022-12-17T14:30:42.921Z,15.05
2022-12-17T14:35:55.188Z,16.13
2022-12-17T14:41:31.628Z,16.05
2022-12-17T14:46:35.066Z,16.67
2022-12-17T14:51:42.835Z,18.80
2022-12-17T15:01:55.637Z,13.73
2022-12-17T15:06:59.209Z,15.77
2022-12-17T15:12:01.015Z,15.90
2022-12-17T15:17:02.866Z,13.68
2022-12-17T15:22:05.449Z,14.27
2022-12-17T15:27:08.617Z,13.13
2022-12-17T15:32:19.547Z,13.77
2022-12-17T15:37:25.632Z,14.60
2022-12-17T15:42:46.394Z,16.40
2022-12-17T15:47:48.473Z,16.08
2022-12-17T15:52:50.405Z,16.77
2022-12-17T15:57:52.337Z,14.82
2022-12-17T16:02:54.344Z,17.27
2022-12-17T16:07:59.273Z,17.67
2022-12-17T16:13:01.174Z,14.68
2022-12-17T16:18:03.265Z,16.40
2022-12-17T16:23:05.263Z,16.17
2022-12-17T16:28:07.098Z,16.27
2022-12-17T16:33:08.931Z,17.25
2022-12-17T16:38:10.812Z,19.77
2022-12-17T16:43:12.614Z,17.52
2022-12-17T16:48:15.050Z,19.45
2022-12-17T16:53:18.456Z,13.65
2022-12-17T16:58:20.268Z,11.48
2022-12-17T17:03:22.312Z,10.48
2022-12-17T17:08:24.376Z,11.57
2022-12-17T17:13:26.142Z,11.15
2022-12-17T17:18:28.139Z,12.77
2022-12-17T17:23:30.897Z,13.05
2022-12-17T17:28:32.938Z,14.20
2022-12-17T17:33:37.194Z,13.10
2022-12-17T17:38:42.380Z,14.30
2022-12-17T17:43:44.808Z,13.63
2022-12-17T17:48:49.821Z,11.57
2022-12-17T17:53:55.679Z,12.80
2022-12-17T17:59:05.485Z,13.25
2022-12-17T18:04:12.108Z,14.63
2022-12-17T18:09:14.748Z,13.60
2022-12-17T18:14:18.207Z,12.07
2022-12-17T18:19:22.025Z,13.98
2022-12-17T18:24:23.830Z,20.95
2022-12-17T18:29:28.913Z,20.63
2022-12-17T18:34:30.953Z,17.67
2022-12-17T18:39:33.355Z,18.33
2022-12-17T18:44:38.767Z,15.10
2022-12-17T18:49:41.921Z,13.67
2022-12-17T18:54:43.654Z,14.70
2022-12-17T18:59:45.814Z,14.07
2022-12-17T19:04:47.655Z,13.77
2022-12-17T19:09:52.292Z,11.90
2022-12-17T19:14:54.110Z,12.60
2022-12-17T19:19:55.842Z,12.10
2022-12-17T19:24:57.597Z,13.10
2022-12-17T19:29:59.396Z,12.45
2022-12-17T19:35:01.310Z,13.23
2022-12-17T19:40:03.674Z,13.00
2022-12-17T19:45:06.681Z,12.68
2022-12-17T19:50:08.797Z,15.18
2022-12-17T19:55:10.636Z,14.95
2022-12-17T20:00:12.808Z,16.27
2022-12-17T20:05:14.573Z,16.70
2022-12-17T20:10:16.518Z,21.08
2022-12-17T20:15:18.358Z,20.70
2022-12-17T20:20:20.119Z,17.42
2022-12-17T20:25:25.009Z,17.80
2022-12-17T20:30:27.013Z,17.98
2022-12-17T20:35:28.789Z,17.85
2022-12-17T20:40:30.821Z,17.58
2022-12-17T20:45:32.631Z,16.35
2022-12-17T20:50:40.683Z,16.15
2022-12-17T20:55:42.679Z,17.13
2022-12-17T21:00:44.579Z,15.77
2022-12-17T21:05:46.545Z,15.88
2022-12-17T21:10:48.337Z,15.15
2022-12-17T21:15:54.742Z,16.33
2022-12-17T21:20:59.557Z,13.55
2022-12-17T21:26:04.323Z,14.63
2022-12-17T21:31:30.354Z,11.77
2022-12-17T21:36:34.124Z,12.32
2022-12-17T21:41:39.276Z,11.82
2022-12-17T21:46:50.002Z,10.63
2022-12-17T21:51:52.278Z,11.77
2022-12-17T21:56:54.196Z,11.63
2022-12-17T22:01:57.553Z,11.48
2022-12-17T22:07:17.407Z,11.35
2022-12-17T22:12:39.919Z,13.07
2022-12-17T22:17:43.057Z,12.05
2022-12-17T22:22:45.619Z,11.95
2022-12-17T22:27:47.709Z,12.57
2022-12-17T22:33:07.065Z,10.75
2022-12-17T22:41:57.834Z,12.67
2022-12-17T22:44:37.052Z,10.48
2022-12-17T22:49:00.262Z,10.07
2022-12-17T22:54:04.786Z,10.18
2022-12-17T22:59:07.697Z,10.98
2022-12-17T23:04:13.856Z,11.02
2022-12-17T23:09:19.417Z,10.18
2022-12-17T23:14:21.482Z,10.15
2022-12-17T23:19:23.223Z,11.75
2022-12-17T23:24:25.084Z,10.00
2022-12-17T23:29:27.074Z,11.07
2022-12-17T23:34:28.878Z,10.48
2022-12-17T23:39:30.855Z,9.13
2022-12-17T23:44:32.638Z,8.25
2022-12-17T23:49:34.454Z,9.13
2022-12-17T23:54:36.199Z,7.30
2022-12-17T23:59:37.989Z,7.35
